createdAt,value
2023-03-29T00:00:40.854Z,98813.12
2023-03-29T00:01:40.894Z,98815.97
2023-03-29T00:02:41.588Z,98815.8
2023-03-29T00:03:40.926Z,98814.16
2023-03-29T00:04:40.943Z,98812.52
2023-03-29T00:05:41.542Z,98809.3
2023-03-29T00:06:40.981Z,98811.48
2023-03-29T00:07:41.465Z,98811.2
2023-03-29T00:08:41.372Z,98811.47
2023-03-29T00:09:41.024Z,98811.23
2023-03-29T00:10:41.377Z,98810.43
2023-03-29T00:11:41.199Z,98807.88
2023-03-29T00:12:41.175Z,98806.38
2023-03-29T00:13:41.062Z,98801.91
2023-03-29T00:14:41.096Z,98801.71
2023-03-29T00:15:41.648Z,98805.04
2023-03-29T00:16:41.127Z,98802.16
2023-03-29T00:17:41.207Z,98808.41
2023-03-29T00:18:41.221Z,98806.03
2023-03-29T00:19:42.842Z,98805.17
2023-03-29T00:20:41.132Z,98806.52
2023-03-29T00:21:41.202Z,98804.43
2023-03-29T00:22:41.247Z,98813
2023-03-29T00:23:41.233Z,98809.33
2023-03-29T00:24:41.215Z,98813.32
2023-03-29T00:25:44.350Z,98811.2
2023-03-29T00:26:41.248Z,98806.91
2023-03-29T00:27:41.316Z,98811.38
2023-03-29T00:28:41.285Z,98811.41
2023-03-29T00:29:41.294Z,98812.44
2023-03-29T00:30:41.327Z,98813.44
2023-03-29T00:31:41.425Z,98819
2023-03-29T00:32:41.421Z,98814.5
2023-03-29T00:33:41.743Z,98818.88
2023-03-29T00:34:41.522Z,98814.02
2023-03-29T00:35:41.440Z,98814.02
2023-03-29T00:36:41.397Z,98817.14
2023-03-29T00:37:41.483Z,98816
2023-03-29T00:38:41.799Z,98820.38
2023-03-29T00:39:41.474Z,98816.19
2023-03-29T00:40:45.669Z,98816.95
2023-03-29T00:41:41.924Z,98813.39
2023-03-29T00:42:44.095Z,98815.27
2023-03-29T00:45:47.926Z,98809.11
2023-03-29T00:46:47.920Z,98808.48
2023-03-29T00:48:54.538Z,98802.8
2023-03-29T00:49:53.110Z,98810.06
2023-03-29T00:50:56.056Z,98804.7
2023-03-29T00:51:52.905Z,98803.07
2023-03-29T00:52:56.363Z,98808.61
2023-03-29T00:53:55.904Z,98803.77
2023-03-29T00:54:55.281Z,98800.91
2023-03-29T00:56:00.210Z,98805.09
2023-03-29T00:56:56.913Z,98806.31
2023-03-29T00:57:57.732Z,98798.22
2023-03-29T00:59:05.310Z,98799.23
2023-03-29T00:59:58.179Z,98803.77
2023-03-29T01:01:06.096Z,98808.39
2023-03-29T01:02:00.681Z,98808.55
2023-03-29T01:02:59.197Z,98807.53
2023-03-29T01:04:01.928Z,98803.84
2023-03-29T01:05:01.643Z,98808.1
2023-03-29T01:06:08.149Z,98804.13
2023-03-29T01:07:02.997Z,98806.39
2023-03-29T01:08:12.369Z,98804.58
2023-03-29T01:09:05.572Z,98807.73
2023-03-29T01:10:08.556Z,98806.95
2023-03-29T01:11:14.657Z,98812.97
2023-03-29T01:12:13.468Z,98812.39
2023-03-29T01:13:12.240Z,98807.52
2023-03-29T01:14:12.141Z,98806.59
2023-03-29T01:15:14.494Z,98813.55
2023-03-29T01:16:12.143Z,98812.37
2023-03-29T01:17:11.158Z,98813.12
2023-03-29T01:18:11.388Z,98809.55
2023-03-29T01:19:13.556Z,98811.31
2023-03-29T01:20:16.481Z,98807.14
2023-03-29T01:21:25.167Z,98810.03
2023-03-29T01:22:28.083Z,98804.87
2023-03-29T01:24:34.786Z,98805.53
2023-03-29T01:26:36.054Z,98806.98
2023-03-29T01:28:41.572Z,98806.78
2023-03-29T01:29:41.702Z,98801.96
2023-03-29T01:31:42.084Z,98797.05
2023-03-29T01:32:46.039Z,98795.41
2023-03-29T01:33:45.627Z,98796.82
2023-03-29T01:34:47.666Z,98800.58
2023-03-29T01:35:46.672Z,98800.11
2023-03-29T01:36:50.747Z,98801.97
2023-03-29T01:37:58.754Z,98800.52
2023-03-29T01:39:54.729Z,98806.53
2023-03-29T01:40:54.826Z,98808.36
2023-03-29T01:44:09.882Z,98808.23
2023-03-29T01:46:08.597Z,98806.53
2023-03-29T01:52:25.720Z,98811.14
2023-03-29T01:54:28.408Z,98808.3
2023-03-29T01:55:35.596Z,98810.77
2023-03-29T01:56:28.776Z,98813.14
2023-03-29T01:57:27.726Z,98817.62
2023-03-29T01:58:31.278Z,98812.48
2023-03-29T01:59:29.699Z,98814.55
2023-03-29T02:00:29.244Z,98812.59
2023-03-29T02:01:29.989Z,98807.7
2023-03-29T02:02:29.445Z,98810.46
2023-03-29T02:03:29.361Z,98804.72
2023-03-29T02:04:32.488Z,98808.72
2023-03-29T02:05:29.659Z,98809.55
2023-03-29T02:06:30.881Z,98806.36
2023-03-29T02:07:29.913Z,98813.38
2023-03-29T02:08:29.547Z,98812.45
2023-03-29T02:09:30.005Z,98811.02
2023-03-29T02:10:30.152Z,98811.47
2023-03-29T02:11:29.345Z,98808.64
2023-03-29T02:12:29.309Z,98808.05
2023-03-29T02:13:30.036Z,98809.23
2023-03-29T02:14:29.813Z,98807.25
2023-03-29T02:15:29.913Z,98804.43
2023-03-29T02:16:34.242Z,98805.52
2023-03-29T02:17:30.949Z,98804.8
2023-03-29T02:18:30.937Z,98808.52
2023-03-29T02:19:31.023Z,98807.86
2023-03-29T02:20:33.604Z,98809.03
2023-03-29T02:22:38.570Z,98803.05
2023-03-29T02:23:37.945Z,98801.76
2023-03-29T02:24:36.792Z,98802.08
2023-03-29T02:25:35.866Z,98804.36
2023-03-29T02:26:40.487Z,98805.73
2023-03-29T02:27:37.144Z,98808.34
2023-03-29T02:28:37.400Z,98808.81
2023-03-29T02:29:37.160Z,98809.16
2023-03-29T02:30:42.183Z,98814.53
2023-03-29T02:33:47.012Z,98813.52
2023-03-29T02:34:50.486Z,98809.31
2023-03-29T02:35:56.284Z,98810.3
2023-03-29T02:36:50.220Z,98805.16
2023-03-29T02:37:48.830Z,98803.42
2023-03-29T02:38:47.865Z,98805.74
2023-03-29T02:39:48.820Z,98804.45
2023-03-29T02:40:47.824Z,98810.89
2023-03-29T02:41:49.594Z,98810.03
2023-03-29T02:42:48.316Z,98809.22
2023-03-29T02:43:48.033Z,98809.96
2023-03-29T02:44:49.803Z,98807.66
2023-03-29T02:45:48.153Z,98810.61
2023-03-29T02:46:49.799Z,98813.5
2023-03-29T02:47:53.210Z,98815.05
2023-03-29T02:48:50.805Z,98813.16
2023-03-29T02:49:49.660Z,98808.66
2023-03-29T02:50:50.951Z,98806.75
2023-03-29T02:51:52.553Z,98806.85
2023-03-29T02:52:53.034Z,98806.36
2023-03-29T02:54:52.944Z,98804.7
2023-03-29T02:55:51.219Z,98807.38
2023-03-29T02:56:58.575Z,98802.02
2023-03-29T02:57:54.913Z,98797.19
2023-03-29T02:58:54.871Z,98797.51
2023-03-29T02:59:55.471Z,98792.45
2023-03-29T03:00:56.245Z,98788.96
2023-03-29T03:01:54.994Z,98794.29
2023-03-29T03:02:55.070Z,98787.56
2023-03-29T03:03:55.109Z,98793.41
2023-03-29T03:04:54.974Z,98784.16
2023-03-29T03:05:55.007Z,98791.53
2023-03-29T03:06:55.033Z,98787.61
2023-03-29T03:07:55.069Z,98794.66
2023-03-29T03:08:55.071Z,98793.25
2023-03-29T03:09:55.270Z,98795.59
2023-03-29T03:10:55.074Z,98799.73
2023-03-29T03:11:55.121Z,98797.7
2023-03-29T03:12:55.219Z,98792.58
2023-03-29T03:13:55.100Z,98794.6
2023-03-29T03:14:55.165Z,98795.12
2023-03-29T03:15:55.270Z,98803.48
2023-03-29T03:16:55.201Z,98803.72
2023-03-29T03:17:55.339Z,98805.89
2023-03-29T03:18:55.199Z,98802.14
2023-03-29T03:19:55.260Z,98804.23
2023-03-29T03:20:56.028Z,98801.92
2023-03-29T03:21:55.269Z,98803.62
2023-03-29T03:22:55.461Z,98799.61
2023-03-29T03:23:55.281Z,98800.95
2023-03-29T03:24:55.330Z,98806.12
2023-03-29T03:25:55.330Z,98805.09
2023-03-29T03:26:55.340Z,98806.69
2023-03-29T03:27:55.689Z,98806.2
2023-03-29T03:28:55.604Z,98809.65
2023-03-29T03:29:55.384Z,98806.61
2023-03-29T03:30:55.402Z,98803.86
2023-03-29T03:31:55.492Z,98813.4
2023-03-29T03:32:55.469Z,98809.22
2023-03-29T03:33:55.628Z,98813.71
2023-03-29T03:34:55.463Z,98812.48
2023-03-29T03:35:55.507Z,98812.98
2023-03-29T03:36:55.497Z,98803.77
2023-03-29T03:37:55.478Z,98813.3
2023-03-29T03:38:55.544Z,98818.38
2023-03-29T03:39:55.610Z,98815.8
2023-03-29T03:40:55.667Z,98819.88
2023-03-29T03:41:55.733Z,98818.61
2023-03-29T03:42:55.588Z,98822.59
2023-03-29T03:43:55.573Z,98819.14
2023-03-29T03:44:55.722Z,98821.44
2023-03-29T03:45:55.879Z,98827.64
2023-03-29T03:46:55.671Z,98826.28
2023-03-29T03:47:55.680Z,98830.1
2023-03-29T03:48:56.085Z,98829.84
2023-03-29T03:49:55.766Z,98831
2023-03-29T03:50:57.639Z,98832.47
2023-03-29T03:51:56.197Z,98832.05
2023-03-29T03:52:56.239Z,98828.16
2023-03-29T03:53:56.237Z,98835.62
2023-03-29T03:54:56.267Z,98832.48
2023-03-29T03:55:56.239Z,98838.75
2023-03-29T03:56:56.292Z,98833.52
2023-03-29T03:57:56.309Z,98833.79
2023-03-29T03:58:56.285Z,98841.33
2023-03-29T03:59:56.380Z,98833.69
2023-03-29T04:00:56.363Z,98835.93
2023-03-29T04:01:56.396Z,98826.63
2023-03-29T04:02:56.525Z,98824.22
2023-03-29T04:03:56.514Z,98827.75
2023-03-29T04:04:56.459Z,98825
2023-03-29T04:05:59.141Z,98827.72
2023-03-29T04:06:56.711Z,98826.7
2023-03-29T04:07:56.783Z,98831.09
2023-03-29T04:08:56.466Z,98825.95
2023-03-29T04:09:56.554Z,98824.76
2023-03-29T04:10:57.431Z,98827.17
2023-03-29T04:11:56.921Z,98830.69
2023-03-29T04:12:58.474Z,98831.13
2023-03-29T04:13:56.569Z,98835.22
2023-03-29T04:14:56.684Z,98838.95
2023-03-29T04:15:58.743Z,98839.23
2023-03-29T04:16:56.589Z,98840.58
2023-03-29T04:17:57.430Z,98828.71
2023-03-29T04:18:56.777Z,98833.43
2023-03-29T04:19:56.660Z,98838.03
2023-03-29T04:20:56.684Z,98841.73
2023-03-29T04:21:56.674Z,98842.01
2023-03-29T04:22:56.683Z,98842.31
2023-03-29T04:23:56.736Z,98837.7
2023-03-29T04:24:56.711Z,98842.27
2023-03-29T04:25:56.795Z,98854.19
2023-03-29T04:26:56.750Z,98847.42
2023-03-29T04:27:56.729Z,98843.55
2023-03-29T04:28:56.844Z,98853.28
2023-03-29T04:29:57.053Z,98849.8
2023-03-29T04:30:56.921Z,98841.16
2023-03-29T04:31:56.867Z,98840.5
2023-03-29T04:32:56.912Z,98840.34
2023-03-29T04:33:59.787Z,98838.61
2023-03-29T04:34:56.917Z,98834.66
2023-03-29T04:35:57.085Z,98832.55
2023-03-29T04:36:56.922Z,98838.88
2023-03-29T04:37:56.918Z,98845.72
2023-03-29T04:38:56.987Z,98845.39
2023-03-29T04:39:57.243Z,98843.66
2023-03-29T04:41:00.641Z,98848.07
2023-03-29T04:41:57.456Z,98845.86
2023-03-29T04:42:57.471Z,98840.77
2023-03-29T04:43:57.303Z,98848.62
2023-03-29T04:44:57.315Z,98850.7
2023-03-29T04:45:57.728Z,98849.2
2023-03-29T04:46:57.363Z,98842.38
2023-03-29T04:47:57.707Z,98849.67
2023-03-29T04:48:57.495Z,98844.81
2023-03-29T04:49:57.359Z,98844.59
2023-03-29T04:50:57.423Z,98846.41
2023-03-29T04:51:57.464Z,98847.79
2023-03-29T04:52:57.449Z,98853.45
2023-03-29T04:53:57.589Z,98859.8
2023-03-29T04:54:57.445Z,98852.91
2023-03-29T04:55:57.625Z,98858.78
2023-03-29T04:56:57.598Z,98846.97
2023-03-29T04:57:57.503Z,98846.97
2023-03-29T04:58:57.525Z,98856.27
2023-03-29T04:59:57.551Z,98854.48
2023-03-29T05:00:57.585Z,98847.56
2023-03-29T05:01:58.299Z,98855.97
2023-03-29T05:02:57.848Z,98857.89
2023-03-29T05:03:57.684Z,98856.17
2023-03-29T05:04:57.628Z,98863.19
2023-03-29T05:06:01.892Z,98852.36
2023-03-29T05:06:58.371Z,98861.22
2023-03-29T05:07:58.166Z,98860.45
2023-03-29T05:08:58.132Z,98865.38
2023-03-29T05:09:58.181Z,98866.17
2023-03-29T05:10:58.286Z,98861.73
2023-03-29T05:11:58.205Z,98866.47
2023-03-29T05:12:58.191Z,98860.52
2023-03-29T05:13:58.246Z,98872.67
2023-03-29T05:14:58.506Z,98863.81
2023-03-29T05:15:58.313Z,98865.26
2023-03-29T05:16:58.308Z,98872.6
2023-03-29T05:17:58.280Z,98869.73
2023-03-29T05:18:58.610Z,98866.41
2023-03-29T05:19:58.302Z,98867.91
2023-03-29T05:20:58.546Z,98868.33
2023-03-29T05:21:58.346Z,98866.95
2023-03-29T05:22:58.369Z,98866.3
2023-03-29T05:23:58.570Z,98865.7
2023-03-29T05:24:58.383Z,98872.53
2023-03-29T05:25:58.399Z,98869.2
2023-03-29T05:26:58.419Z,98879.56
2023-03-29T05:27:58.445Z,98884.56
2023-03-29T05:28:58.514Z,98872.69
2023-03-29T05:29:58.524Z,98869.83
2023-03-29T05:30:59.273Z,98874.56
2023-03-29T05:31:58.967Z,98873.58
2023-03-29T05:33:01.177Z,98874.12
2023-03-29T05:33:58.549Z,98876.48
2023-03-29T05:34:58.565Z,98877.38
2023-03-29T05:36:02.286Z,98873.06
2023-03-29T05:36:58.601Z,98870.86
2023-03-29T05:37:58.641Z,98877.12
2023-03-29T05:38:58.838Z,98877.58
2023-03-29T05:40:05.593Z,98873.78
2023-03-29T05:41:03.164Z,98872.47
2023-03-29T05:42:03.144Z,98877.09
2023-03-29T05:43:02.698Z,98875.75
2023-03-29T05:44:02.678Z,98877.42
2023-03-29T05:45:03.133Z,98877.97
2023-03-29T05:46:02.823Z,98873.73
2023-03-29T05:47:02.783Z,98881.79
2023-03-29T05:48:02.791Z,98879.45
2023-03-29T05:49:02.797Z,98876.17
2023-03-29T05:50:03.448Z,98878.25
2023-03-29T05:51:03.049Z,98879.59
2023-03-29T05:52:02.792Z,98878.87
2023-03-29T05:53:03.040Z,98878.34
2023-03-29T05:54:02.867Z,98883.45
2023-03-29T05:55:03.508Z,98879.47
2023-03-29T05:56:02.986Z,98884.76
2023-03-29T05:57:02.991Z,98877.38
2023-03-29T05:58:02.986Z,98873.55
2023-03-29T05:59:02.936Z,98875.11
2023-03-29T06:00:03.889Z,98876.8
2023-03-29T06:01:03.211Z,98874.35
2023-03-29T06:02:03.027Z,98878.6
2023-03-29T06:03:13.566Z,98874.56
2023-03-29T06:04:04.788Z,98872.02
2023-03-29T06:05:04.956Z,98877.2
2023-03-29T06:06:05.085Z,98871.48
2023-03-29T06:07:04.799Z,98880.22
2023-03-29T06:08:05.040Z,98879.16
2023-03-29T06:09:04.980Z,98884.09
2023-03-29T06:10:05.867Z,98883.65
2023-03-29T06:11:05.739Z,98885.85
2023-03-29T06:12:04.785Z,98878.64
2023-03-29T06:13:04.825Z,98885.92
2023-03-29T06:14:04.745Z,98881.41
2023-03-29T06:15:05.252Z,98891.05
2023-03-29T06:16:08.434Z,98892.02
2023-03-29T06:17:05.124Z,98884.91
2023-03-29T06:18:05.155Z,98889.94
2023-03-29T06:19:05.176Z,98896.92
2023-03-29T06:20:08.300Z,98898.69
2023-03-29T06:21:05.873Z,98897.88
2023-03-29T06:22:05.239Z,98897.59
2023-03-29T06:23:05.204Z,98898.95
2023-03-29T06:24:05.393Z,98898.12
2023-03-29T06:25:08.854Z,98897.41
2023-03-29T06:26:06.026Z,98904.45
2023-03-29T06:27:05.536Z,98902.96
2023-03-29T06:28:05.534Z,98906.41
2023-03-29T06:29:05.635Z,98901.34
2023-03-29T06:30:06.170Z,98903.69
2023-03-29T06:31:06.576Z,98899.68
2023-03-29T06:32:05.774Z,98902.62
2023-03-29T06:33:05.681Z,98903.59
2023-03-29T06:34:05.647Z,98907.19
2023-03-29T06:35:06.278Z,98904.77
2023-03-29T06:36:06.181Z,98915.36
2023-03-29T06:37:05.705Z,98916.97
2023-03-29T06:38:05.648Z,98920.88
2023-03-29T06:39:05.852Z,98917.78
2023-03-29T06:40:06.327Z,98913.27
2023-03-29T06:41:07.215Z,98922.45
2023-03-29T06:42:20.071Z,98917.5
2023-03-29T06:43:08.335Z,98926.08
2023-03-29T06:44:08.175Z,98927.03
2023-03-29T06:45:08.614Z,98925.23
2023-03-29T06:46:08.408Z,98930.03
2023-03-29T06:47:08.187Z,98929.61
2023-03-29T06:48:08.561Z,98927.36
2023-03-29T06:49:08.345Z,98935.03
2023-03-29T06:50:08.661Z,98937.12
2023-03-29T06:51:08.362Z,98939.12
2023-03-29T06:52:08.573Z,98944.2
2023-03-29T06:53:08.304Z,98943.76
2023-03-29T06:54:08.307Z,98946.83
2023-03-29T06:55:08.897Z,98940.85
2023-03-29T06:56:09.192Z,98951.91
2023-03-29T06:57:08.402Z,98954.48
2023-03-29T06:58:08.415Z,98958.62
2023-03-29T06:59:08.405Z,98950.89
2023-03-29T07:00:09.430Z,98951.47
2023-03-29T07:01:08.480Z,98951.69
2023-03-29T07:02:09.976Z,98955.7
2023-03-29T07:03:09.095Z,98957.77
2023-03-29T07:04:08.775Z,98961.8
2023-03-29T07:05:08.969Z,98958.06
2023-03-29T07:06:09.061Z,98964.26
2023-03-29T07:07:09.751Z,98954.41
2023-03-29T07:08:08.649Z,98958.09
2023-03-29T07:09:08.583Z,98961.02
2023-03-29T07:10:08.997Z,98955.52
2023-03-29T07:11:09.196Z,98954.98
2023-03-29T07:12:08.703Z,98967.95
2023-03-29T07:13:09.985Z,98956.38
2023-03-29T07:14:09.100Z,98953.25
2023-03-29T07:15:08.963Z,98955.95
2023-03-29T07:16:11.408Z,98959.64
2023-03-29T07:17:08.654Z,98961.95
2023-03-29T07:18:09.226Z,98966.19
2023-03-29T07:19:08.807Z,98967.12
2023-03-29T07:20:09.031Z,98963.34
2023-03-29T07:21:09.355Z,98967.19
2023-03-29T07:22:08.765Z,98962.38
2023-03-29T07:23:08.943Z,98970.44
2023-03-29T07:24:08.816Z,98972.2
2023-03-29T07:25:09.580Z,98971.05
2023-03-29T07:26:08.829Z,98974.47
2023-03-29T07:27:08.822Z,98966.3
2023-03-29T07:28:08.824Z,98976.09
2023-03-29T07:29:08.901Z,98973.56
2023-03-29T07:30:09.958Z,98979.23
2023-03-29T07:31:10.008Z,98975.98
2023-03-29T07:32:08.896Z,98972.01
2023-03-29T07:33:09.011Z,98975.64
2023-03-29T07:34:09.046Z,98974.09
2023-03-29T07:35:09.190Z,98971.55
2023-03-29T07:36:09.672Z,98969.34
2023-03-29T07:37:09.012Z,98974.36
2023-03-29T07:38:09.188Z,98961.03
2023-03-29T07:39:09.292Z,98959.61
2023-03-29T07:40:10.125Z,98973.81
2023-03-29T07:41:09.075Z,98975.95
2023-03-29T07:42:09.165Z,98977.86
2023-03-29T07:43:09.195Z,98973.05
2023-03-29T07:44:09.202Z,98975.98
2023-03-29T07:45:09.863Z,98982.02
2023-03-29T07:46:09.102Z,98970.92
2023-03-29T07:47:09.112Z,98971.17
2023-03-29T07:48:09.224Z,98954.58
2023-03-29T07:49:09.404Z,98981.99
2023-03-29T07:50:09.466Z,98979.42
2023-03-29T07:51:09.251Z,98979.13
2023-03-29T07:52:09.157Z,98973.42
2023-03-29T07:53:09.373Z,98976.95
2023-03-29T07:54:09.236Z,98982.64
2023-03-29T07:55:10.113Z,98979.87
2023-03-29T07:56:09.193Z,98985.45
2023-03-29T07:57:09.304Z,98988.73
2023-03-29T07:58:09.251Z,98990.27
2023-03-29T07:59:09.249Z,98984.52
2023-03-29T08:00:10.295Z,98992.18
2023-03-29T08:01:10.953Z,99001.78
2023-03-29T08:02:10.398Z,98991.99
2023-03-29T08:03:10.949Z,98993.11
2023-03-29T08:04:09.396Z,98994.36
2023-03-29T08:05:09.887Z,98995.8
2023-03-29T08:06:09.436Z,98997.3
2023-03-29T08:07:09.376Z,98993.19
2023-03-29T08:08:10.019Z,98999.67
2023-03-29T08:09:09.393Z,98995.46
2023-03-29T08:10:10.849Z,98993.07
2023-03-29T08:11:09.696Z,98990.06
2023-03-29T08:12:09.541Z,98996.32
2023-03-29T08:13:09.762Z,99000.68
2023-03-29T08:14:09.470Z,99008.64
2023-03-29T08:15:09.908Z,98996.64
2023-03-29T08:16:09.696Z,99007.78
2023-03-29T08:17:09.642Z,99007.14
2023-03-29T08:18:09.610Z,99004.97
2023-03-29T08:19:09.545Z,99009.98
2023-03-29T08:20:11.110Z,98999.94
2023-03-29T08:21:09.614Z,98999.47
2023-03-29T08:22:09.547Z,99001.8
2023-03-29T08:23:09.665Z,99003.33
2023-03-29T08:24:09.621Z,99006.52
2023-03-29T08:25:10.085Z,99002.66
2023-03-29T08:26:09.733Z,99012.6
2023-03-29T08:27:09.681Z,99010.78
2023-03-29T08:28:09.649Z,99015.98
2023-03-29T08:29:09.723Z,99010.01
2023-03-29T08:30:09.805Z,99016.88
2023-03-29T08:31:10.512Z,99011.7
2023-03-29T08:32:09.799Z,99011.98
2023-03-29T08:33:09.814Z,99017.15
2023-03-29T08:34:09.766Z,99017.77
2023-03-29T08:35:09.969Z,99013.97
2023-03-29T08:36:10.159Z,99017.33
2023-03-29T08:37:09.836Z,99016.55
2023-03-29T08:38:09.779Z,99017.91
2023-03-29T08:39:09.798Z,99015.45
2023-03-29T08:40:16.663Z,99019.01
2023-03-29T08:48:30.335Z,99035.49
2023-03-29T08:49:27.391Z,99029.56
2023-03-29T08:50:32.491Z,99037.01
2023-03-29T08:51:35.763Z,99038.32
2023-03-29T08:52:40.838Z,99038.84
2023-03-29T08:53:38.471Z,99043.62
2023-03-29T08:54:40.067Z,99034.58
2023-03-29T08:55:39.306Z,99037.01
2023-03-29T08:56:38.657Z,99032.56
2023-03-29T08:57:43.632Z,99034.24
2023-03-29T08:58:41.663Z,99031.55
2023-03-29T08:59:41.189Z,99033
2023-03-29T09:00:45.075Z,99041.31
2023-03-29T09:01:42.359Z,99035.48
2023-03-29T09:02:43.390Z,99048.94
2023-03-29T09:03:47.010Z,99048.06
2023-03-29T09:04:43.726Z,99036.66
2023-03-29T09:05:48.403Z,99051.27
2023-03-29T09:06:45.100Z,99035.72
2023-03-29T09:07:45.160Z,99039.81
2023-03-29T09:08:47.133Z,99042.09
2023-03-29T09:09:45.171Z,99036.06
2023-03-29T09:10:53.206Z,99049.7
2023-03-29T09:11:55.694Z,99042.47
2023-03-29T09:20:22.172Z,99046.61
2023-03-29T09:27:49.557Z,99047.8
2023-03-29T09:28:54.770Z,99045.26
2023-03-29T09:29:49.907Z,99032.76
2023-03-29T09:30:43.031Z,99045.84
2023-03-29T09:31:43.042Z,99049.95
2023-03-29T09:32:51.584Z,99046.19
2023-03-29T09:34:49.010Z,99050.35
2023-03-29T09:35:53.276Z,99043.48
2023-03-29T09:36:54.377Z,99048.35
2023-03-29T09:37:52.229Z,99051.2
2023-03-29T09:38:51.811Z,99051.4
2023-03-29T09:39:51.640Z,99043.2
2023-03-29T09:42:57.963Z,99050.12
2023-03-29T09:43:59.909Z,99052.69
2023-03-29T09:46:01.634Z,99045.24
2023-03-29T09:49:06.684Z,99050.64
2023-03-29T09:51:07.714Z,99044.95
2023-03-29T09:52:08.990Z,99052.8
2023-03-29T09:53:07.322Z,99050.69
2023-03-29T09:54:06.421Z,99050.28
2023-03-29T09:55:06.960Z,99059.52
2023-03-29T09:56:06.909Z,99053.59
2023-03-29T09:57:09.311Z,99052.16
2023-03-29T09:58:16.782Z,99051.06
2023-03-29T09:59:11.762Z,99053.28
2023-03-29T10:00:09.061Z,99052.39
2023-03-29T10:01:08.611Z,99049.71
2023-03-29T10:02:09.991Z,99047.77
2023-03-29T10:03:10.603Z,99058.73
2023-03-29T10:04:09.326Z,99055.3
2023-03-29T10:05:15.720Z,99058.41
2023-03-29T10:06:12.622Z,99056.54
2023-03-29T10:07:19.239Z,99048.89
2023-03-29T10:09:21.216Z,99052.76
2023-03-29T10:12:22.903Z,99051.56
2023-03-29T10:13:29.826Z,99050.78
2023-03-29T10:14:31.972Z,99054.35
2023-03-29T10:15:30.259Z,99057.16
2023-03-29T10:16:29.881Z,99057.55
2023-03-29T10:17:28.312Z,99051.73
2023-03-29T10:18:29.712Z,99054.84
2023-03-29T10:19:29.832Z,99064.42
2023-03-29T10:20:28.294Z,99063.06
2023-03-29T10:21:29.014Z,99059.77
2023-03-29T10:22:35.983Z,99060.45
2023-03-29T10:23:33.349Z,99063.28
2023-03-29T10:24:32.211Z,99055.7
2023-03-29T10:25:33.870Z,99059.94
2023-03-29T10:26:32.764Z,99057.31
2023-03-29T10:27:32.885Z,99067.08
2023-03-29T10:28:32.759Z,99056.97
2023-03-29T10:30:36.586Z,99040.8
2023-03-29T10:31:33.904Z,99057.27
2023-03-29T10:32:34.835Z,99059.11
2023-03-29T10:33:34.770Z,99060.53
2023-03-29T10:34:33.681Z,99059.38
2023-03-29T10:35:37.145Z,99065.64
2023-03-29T10:36:33.811Z,99063.64
2023-03-29T10:37:33.716Z,99064.62
2023-03-29T10:38:35.389Z,99057.16
2023-03-29T10:39:34.333Z,99056.23
2023-03-29T10:40:34.815Z,99053.92
2023-03-29T10:41:34.892Z,99050.95
2023-03-29T10:42:33.792Z,99062.09
2023-03-29T10:43:38.452Z,99063.16
2023-03-29T10:44:35.456Z,99059.38
2023-03-29T10:45:35.114Z,99069.19
2023-03-29T10:46:42.169Z,99072.25
2023-03-29T10:47:38.645Z,99065.72
2023-03-29T10:48:38.898Z,99070.35
2023-03-29T10:49:42.968Z,99078.08
2023-03-29T10:50:39.370Z,99049.62
2023-03-29T10:51:44.306Z,99065
2023-03-29T10:52:40.636Z,99065.72
2023-03-29T10:53:41.226Z,99065.6
2023-03-29T10:54:40.574Z,99069.7
2023-03-29T10:55:45.460Z,99066.78
2023-03-29T10:56:43.040Z,99058.51
2023-03-29T11:00:56.761Z,99063.8
2023-03-29T11:09:20.343Z,99061.24
2023-03-29T11:10:30.678Z,99062.93
2023-03-29T11:12:23.647Z,99075.81
2023-03-29T11:16:36.970Z,99068.87
2023-03-29T11:17:30.844Z,99078.31
2023-03-29T11:28:57.327Z,99071.64
2023-03-29T11:37:22.681Z,99068.72
2023-03-29T11:38:26.072Z,99071.27
2023-03-29T11:41:31.330Z,99070.15
2023-03-29T11:42:30.578Z,99083.26
2023-03-29T11:43:40.847Z,99080.41
2023-03-29T11:44:33.923Z,99087.23
2023-03-29T11:45:37.887Z,99084.06
2023-03-29T11:46:45.447Z,99092.5
2023-03-29T11:47:39.709Z,99086.47
2023-03-29T11:48:41.718Z,99087.51
2023-03-29T11:49:41.833Z,99087.97
2023-03-29T11:50:47.555Z,99089.89
2023-03-29T11:51:44.098Z,99073.04
2023-03-29T11:52:43.784Z,99099.76
2023-03-29T11:53:50.945Z,99089.09
2023-03-29T11:54:52.277Z,99091.09
2023-03-29T11:55:44.533Z,99094.33
2023-03-29T11:56:47.223Z,99085.84
2023-03-29T11:57:47.720Z,99086.58
2023-03-29T11:58:48.118Z,99087.49
2023-03-29T11:59:48.851Z,99079.38
2023-03-29T12:00:48.352Z,99083.8
2023-03-29T12:01:49.588Z,99093.08
2023-03-29T12:03:53.032Z,99086.62
2023-03-29T12:04:51.936Z,99087.53
2023-03-29T12:05:51.896Z,99078.37
2023-03-29T12:06:55.220Z,99080.93
2023-03-29T12:08:04.775Z,99062.12
2023-03-29T12:09:04.925Z,99084.16
2023-03-29T12:09:59.839Z,99085.58
2023-03-29T12:12:10.104Z,99078.78
2023-03-29T12:15:11.981Z,99084.69
2023-03-29T12:16:14.574Z,99091.84
2023-03-29T12:17:19.611Z,99086.06
2023-03-29T12:18:23.924Z,99085.01
2023-03-29T12:19:28.480Z,99086.48
2023-03-29T12:20:27.010Z,99087.88
2023-03-29T12:21:27.501Z,99090.23
2023-03-29T12:22:25.263Z,99091.89
2023-03-29T12:23:25.361Z,99097
2023-03-29T12:24:27.389Z,99096.67
2023-03-29T12:25:29.031Z,99094.4
2023-03-29T12:26:35.062Z,99090.8
2023-03-29T12:27:30.071Z,99080.34
2023-03-29T12:30:38.510Z,99097.7
2023-03-29T12:32:48.952Z,99091.38
2023-03-29T12:33:48.869Z,99094.96
2023-03-29T12:39:02.598Z,99104.87
2023-03-29T12:40:10.606Z,99105.41
2023-03-29T12:41:18.317Z,99102.91
2023-03-29T12:42:14.769Z,99107.8
2023-03-29T12:44:13.621Z,99106.94
2023-03-29T12:46:17.594Z,99104.45
2023-03-29T12:47:18.688Z,99104.5
2023-03-29T12:48:18.582Z,99110.27
2023-03-29T12:50:25.567Z,99110.88
2023-03-29T12:51:28.757Z,99108.62
2023-03-29T12:52:33.326Z,99099.81
2023-03-29T12:53:38.483Z,99110.25
2023-03-29T12:54:32.135Z,99110.33
2023-03-29T12:55:39.106Z,99110.88
2023-03-29T13:00:44.895Z,99112.28
2023-03-29T13:02:43.668Z,99102.2
2023-03-29T13:03:51.137Z,99112.16
2023-03-29T13:04:54.953Z,99112.75
2023-03-29T13:06:54.793Z,99110.72
2023-03-29T13:07:52.059Z,99116.04
2023-03-29T13:08:57.702Z,99109.81
2023-03-29T13:09:58.293Z,99113.26
2023-03-29T13:10:55.969Z,99113.28
2023-03-29T13:11:57.225Z,99117.47
2023-03-29T13:12:55.175Z,99117.14
2023-03-29T13:13:55.352Z,99113.08
2023-03-29T13:14:59.983Z,99118.81
2023-03-29T13:17:08.643Z,99115.98
2023-03-29T13:27:34.701Z,99124.48
2023-03-29T13:39:05.114Z,99121.7
2023-03-29T13:41:06.212Z,99126.57
2023-03-29T13:45:16.267Z,99124.28
2023-03-29T13:46:18.849Z,99132.63
2023-03-29T13:47:28.639Z,99128.81
2023-03-29T13:49:24.325Z,99129.8
2023-03-29T13:51:31.605Z,99131.13
2023-03-29T13:52:30.074Z,99130.95
2023-03-29T13:53:33.326Z,99134.76
2023-03-29T13:54:33.141Z,99131.38
2023-03-29T13:55:33.266Z,99124.69
2023-03-29T13:56:40.063Z,99118.34
2023-03-29T13:57:35.942Z,99125.58
2023-03-29T14:00:38.648Z,99125.17
2023-03-29T14:01:39.026Z,99130.65
2023-03-29T14:02:47.417Z,99135.22
2023-03-29T14:03:46.063Z,99127.83
2023-03-29T14:04:42.457Z,99131.58
2023-03-29T14:05:41.019Z,99129.42
2023-03-29T14:06:40.877Z,99134.2
2023-03-29T14:07:50.134Z,99136.8
2023-03-29T14:08:42.477Z,99136.58
2023-03-29T14:09:44.906Z,99133
2023-03-29T14:10:43.906Z,99130.56
2023-03-29T14:11:44.037Z,99126.39